createdAt,value
2023-11-07T00:00:13.735Z,5.97
2023-11-07T00:02:40.554Z,7.72
2023-11-07T00:05:10.164Z,7.05
2023-11-07T00:07:37.600Z,6.68
2023-11-07T00:10:04.711Z,9.27
2023-11-07T00:12:31.259Z,7.32
2023-11-07T00:14:57.866Z,7.32
2023-11-07T00:17:24.722Z,8.48
2023-11-07T00:19:51.249Z,8.68
2023-11-07T00:22:17.818Z,8.23
2023-11-07T00:24:44.910Z,7.05
2023-11-07T00:27:11.525Z,6.70
2023-11-07T00:29:38.056Z,10.15
2023-11-07T00:32:04.997Z,7.25
2023-11-07T00:34:31.609Z,7.47
2023-11-07T00:36:58.098Z,7.28
2023-11-07T00:39:24.638Z,6.55
2023-11-07T00:41:51.167Z,7.10
2023-11-07T00:44:19.348Z,6.88
2023-11-07T00:46:45.884Z,6.47
2023-11-07T00:49:12.565Z,6.80
2023-11-07T00:51:39.937Z,7.32
2023-11-07T00:54:06.597Z,6.75
2023-11-07T00:56:33.180Z,10.68
2023-11-07T00:58:59.828Z,6.87
2023-11-07T01:01:26.439Z,7.82
2023-11-07T01:03:53.117Z,7.03
2023-11-07T01:06:19.910Z,15.70
2023-11-07T01:08:46.730Z,8.02
2023-11-07T01:11:13.961Z,7.03
2023-11-07T01:13:41.025Z,6.97
2023-11-07T01:16:08.175Z,6.82
2023-11-07T01:18:34.937Z,7.53
2023-11-07T01:21:01.642Z,6.38
2023-11-07T01:23:28.221Z,12.47
2023-11-07T01:25:55.072Z,7.70
2023-11-07T01:28:22.460Z,6.47
2023-11-07T01:30:52.428Z,6.90
2023-11-07T01:33:19.097Z,8.13
2023-11-07T01:35:46.039Z,6.40
2023-11-07T01:38:12.644Z,7.38
2023-11-07T01:40:39.321Z,7.10
2023-11-07T01:43:13.774Z,7.57
2023-11-07T01:45:41.305Z,5.85
2023-11-07T01:48:14.840Z,6.50
2023-11-07T01:50:41.918Z,18.05
2023-11-07T01:53:09.560Z,9.30
2023-11-07T01:55:36.946Z,6.97
2023-11-07T01:58:04.110Z,6.28
2023-11-07T02:00:31.812Z,6.57
2023-11-07T02:02:59.679Z,12.13
2023-11-07T02:05:30.305Z,8.07
2023-11-07T02:07:56.938Z,7.53
2023-11-07T02:10:23.477Z,8.13
2023-11-07T02:12:50.102Z,8.17
2023-11-07T02:15:27.426Z,8.77
2023-11-07T02:17:55.183Z,9.88
2023-11-07T02:20:22.026Z,6.63
2023-11-07T02:22:56.662Z,8.25
2023-11-07T02:25:23.275Z,6.97
2023-11-07T02:27:49.768Z,6.65
2023-11-07T02:30:16.411Z,7.68
2023-11-07T02:32:44.223Z,9.07
2023-11-07T02:35:12.374Z,6.75
2023-11-07T02:37:39.583Z,10.60
2023-11-07T02:40:07.649Z,6.72
2023-11-07T02:42:34.582Z,6.45
2023-11-07T02:45:01.191Z,6.57
2023-11-07T02:47:27.691Z,11.38
2023-11-07T02:49:55.215Z,8.40
2023-11-07T02:52:22.384Z,6.85
2023-11-07T02:54:49.897Z,6.90
2023-11-07T02:57:16.586Z,6.50
2023-11-07T02:59:49.420Z,6.55
2023-11-07T03:02:18.224Z,7.40
2023-11-07T03:04:45.170Z,17.58
2023-11-07T03:07:12.009Z,9.57
2023-11-07T03:09:38.734Z,6.88
2023-11-07T03:12:05.708Z,8.30
2023-11-07T03:14:33.561Z,7.40
2023-11-07T03:17:00.138Z,7.45
2023-11-07T03:19:26.704Z,6.38
2023-11-07T03:21:54.196Z,7.63
2023-11-07T03:24:20.777Z,7.43
2023-11-07T03:26:47.314Z,8.17
2023-11-07T03:29:14.081Z,8.23
2023-11-07T03:31:41.174Z,7.72
2023-11-07T03:34:07.795Z,10.00
2023-11-07T03:36:34.309Z,9.85
2023-11-07T03:39:01.111Z,7.60
2023-11-07T03:41:27.851Z,7.78
2023-11-07T03:43:54.742Z,5.97
2023-11-07T03:46:21.781Z,9.50
2023-11-07T03:48:48.633Z,7.93
2023-11-07T03:51:15.484Z,7.57
2023-11-07T03:53:42.447Z,6.15
2023-11-07T03:56:10.597Z,7.70
2023-11-07T03:58:37.228Z,7.60
2023-11-07T04:01:04.836Z,7.43
2023-11-07T04:03:31.507Z,8.73
2023-11-07T04:05:58.420Z,6.68
2023-11-07T04:08:25.662Z,9.65
2023-11-07T04:10:52.284Z,10.68
2023-11-07T04:13:18.795Z,6.93
2023-11-07T04:15:45.402Z,7.67
2023-11-07T04:18:12.259Z,10.10
2023-11-07T04:20:39.733Z,11.52
2023-11-07T04:23:06.330Z,7.18
2023-11-07T04:25:33.128Z,7.63
2023-11-07T04:27:59.638Z,13.57
2023-11-07T04:30:26.301Z,7.70
2023-11-07T04:32:52.900Z,11.95
2023-11-07T04:35:19.667Z,6.80
2023-11-07T04:37:46.178Z,6.85
2023-11-07T04:40:12.847Z,7.93
2023-11-07T04:42:39.381Z,8.75
2023-11-07T04:45:08.460Z,7.63
2023-11-07T04:47:35.250Z,9.40
2023-11-07T04:50:01.952Z,8.10
2023-11-07T04:52:28.517Z,8.40
2023-11-07T04:54:55.076Z,7.25
2023-11-07T04:57:22.279Z,9.85
2023-11-07T04:59:49.064Z,7.60
2023-11-07T05:02:16.805Z,8.77
2023-11-07T05:04:46.996Z,8.10
2023-11-07T05:07:14.561Z,9.23
2023-11-07T05:09:41.168Z,8.25
2023-11-07T05:12:09.128Z,9.07
2023-11-07T05:14:36.027Z,7.50
2023-11-07T05:17:02.648Z,9.53
2023-11-07T05:19:29.194Z,8.40
2023-11-07T05:21:56.132Z,11.30
2023-11-07T05:24:23.241Z,10.90
2023-11-07T05:26:49.778Z,8.70
2023-11-07T05:29:16.775Z,9.60
2023-11-07T05:31:43.495Z,8.45
2023-11-07T05:34:10.316Z,11.07
2023-11-07T05:36:36.992Z,7.53
2023-11-07T05:39:04.005Z,9.05
2023-11-07T05:41:31.542Z,9.67
2023-11-07T05:43:58.071Z,9.10
2023-11-07T05:46:24.798Z,8.48
2023-11-07T05:48:52.770Z,10.65
2023-11-07T05:51:20.858Z,10.40
2023-11-07T05:53:47.419Z,10.00
2023-11-07T05:56:13.931Z,17.15
2023-11-07T05:58:40.503Z,9.32
2023-11-07T06:01:07.169Z,10.40
2023-11-07T06:03:33.832Z,11.30
2023-11-07T06:06:00.624Z,9.70
2023-11-07T06:08:27.290Z,13.88
2023-11-07T06:10:53.916Z,13.82
2023-11-07T06:13:20.424Z,10.13
2023-11-07T06:15:47.004Z,10.30
2023-11-07T06:18:13.580Z,10.70
2023-11-07T06:20:40.162Z,10.88
2023-11-07T06:23:06.827Z,10.73
2023-11-07T06:25:35.074Z,12.60
2023-11-07T06:28:01.867Z,10.40
2023-11-07T06:30:31.102Z,11.20
2023-11-07T06:32:58.699Z,12.23
2023-11-07T06:35:25.392Z,9.15
2023-11-07T06:37:51.918Z,10.85
2023-11-07T06:40:19.847Z,9.75
2023-11-07T06:42:47.418Z,11.40
2023-11-07T06:45:15.147Z,9.80
2023-11-07T06:47:43.610Z,9.13
2023-11-07T06:50:11.725Z,10.82
2023-11-07T06:52:48.630Z,10.55
2023-11-07T06:55:15.800Z,11.70
2023-11-07T06:57:43.453Z,20.25
2023-11-07T07:00:11.077Z,10.20
2023-11-07T07:02:38.650Z,13.00
2023-11-07T07:05:05.794Z,10.13
2023-11-07T07:07:32.405Z,9.10
2023-11-07T07:09:59.335Z,9.07
2023-11-07T07:12:26.069Z,12.48
2023-11-07T07:14:53.136Z,10.68
2023-11-07T07:17:20.483Z,12.18
2023-11-07T07:19:47.250Z,10.33
2023-11-07T07:22:13.790Z,8.70
2023-11-07T07:24:41.117Z,10.55
2023-11-07T07:27:09.649Z,11.55
2023-11-07T07:29:37.968Z,12.27
2023-11-07T07:32:04.825Z,11.27
2023-11-07T07:34:33.406Z,9.80
2023-11-07T07:37:00.059Z,11.20
2023-11-07T07:39:30.602Z,10.13
2023-11-07T07:41:59.742Z,10.73
2023-11-07T07:44:26.818Z,12.47
2023-11-07T07:46:54.885Z,10.73
2023-11-07T07:49:26.419Z,10.23
2023-11-07T07:51:56.864Z,9.25
2023-11-07T07:54:43.303Z,11.10
2023-11-07T07:57:10.919Z,10.33
2023-11-07T07:59:43.072Z,11.32
2023-11-07T08:02:10.543Z,11.52
2023-11-07T08:04:37.349Z,9.73
2023-11-07T08:07:05.117Z,9.60
2023-11-07T08:09:31.828Z,10.93
2023-11-07T08:11:58.354Z,10.30
2023-11-07T08:14:24.982Z,9.80
2023-11-07T08:16:54.020Z,9.80
2023-11-07T08:19:21.652Z,10.93
2023-11-07T08:21:50.832Z,12.23
2023-11-07T08:24:17.929Z,11.57
2023-11-07T08:26:45.037Z,8.48
2023-11-07T08:29:12.259Z,9.32
2023-11-07T08:31:40.053Z,10.45
2023-11-07T08:34:10.654Z,10.00
2023-11-07T08:36:43.723Z,10.07
2023-11-07T08:39:28.412Z,9.50
2023-11-07T08:41:56.155Z,8.85
2023-11-07T08:44:23.262Z,9.48
2023-11-07T08:46:50.494Z,9.47
2023-11-07T08:49:17.638Z,8.50
2023-11-07T08:51:45.873Z,7.88
2023-11-07T08:54:12.362Z,9.23
2023-11-07T08:56:38.962Z,8.68
2023-11-07T08:59:05.463Z,7.97
2023-11-07T09:01:32.043Z,8.65
2023-11-07T09:03:58.707Z,9.45
2023-11-07T09:06:25.315Z,7.28
2023-11-07T09:08:52.677Z,7.90
2023-11-07T09:11:20.527Z,8.57
2023-11-07T09:13:47.064Z,8.77
2023-11-07T09:16:14.729Z,8.18
2023-11-07T09:18:41.333Z,8.02
2023-11-07T09:21:08.023Z,8.07
2023-11-07T09:23:36.870Z,7.33
2023-11-07T09:26:04.198Z,7.68
2023-11-07T09:28:30.741Z,8.13
2023-11-07T09:30:58.508Z,7.05
2023-11-07T09:33:25.089Z,7.20
2023-11-07T09:35:51.950Z,8.57
2023-11-07T09:38:18.540Z,7.75
2023-11-07T09:40:45.535Z,7.68
2023-11-07T09:43:13.598Z,7.68
2023-11-07T09:45:41.704Z,9.27
2023-11-07T09:48:11.568Z,11.73
2023-11-07T09:50:42.829Z,7.40
2023-11-07T09:53:14.244Z,7.78
2023-11-07T09:55:41.205Z,7.65
2023-11-07T09:58:15.648Z,7.75
2023-11-07T10:00:45.496Z,7.63
2023-11-07T10:03:13.404Z,7.03
2023-11-07T10:05:40.946Z,7.45
2023-11-07T10:08:07.842Z,7.60
2023-11-07T10:10:35.506Z,7.28
2023-11-07T10:13:12.578Z,7.70
2023-11-07T10:15:40.572Z,7.78
2023-11-07T10:18:12.878Z,7.13
2023-11-07T10:20:54.483Z,6.65
2023-11-07T10:23:22.265Z,6.43
2023-11-07T10:25:51.387Z,6.70
2023-11-07T10:28:21.500Z,7.22
2023-11-07T10:30:49.656Z,7.50
2023-11-07T10:33:29.806Z,7.85
2023-11-07T10:36:00.641Z,6.15
2023-11-07T10:38:28.130Z,6.70
2023-11-07T10:40:54.596Z,6.38
2023-11-07T10:43:40.881Z,6.18
2023-11-07T10:46:12.011Z,7.75
2023-11-07T10:48:40.934Z,6.95
2023-11-07T10:51:12.426Z,6.40
2023-11-07T10:53:43.951Z,7.53
2023-11-07T10:56:21.299Z,6.38
2023-11-07T10:59:01.210Z,5.88
2023-11-07T11:01:34.844Z,6.05
2023-11-07T11:04:03.104Z,9.17
2023-11-07T11:06:33.051Z,5.15
2023-11-07T11:09:02.644Z,7.40
2023-11-07T11:11:34.949Z,5.70
2023-11-07T11:14:05.164Z,6.35
2023-11-07T11:16:32.889Z,6.53
2023-11-07T11:19:10.722Z,5.55
2023-11-07T11:21:56.169Z,5.97
2023-11-07T11:24:59.640Z,6.15
2023-11-07T11:27:37.055Z,6.32
2023-11-07T11:30:07.005Z,6.53
2023-11-07T11:32:34.127Z,5.70
2023-11-07T11:35:18.984Z,6.50
2023-11-07T11:38:17.861Z,5.07
2023-11-07T11:40:56.900Z,5.68
2023-11-07T11:43:27.639Z,5.70
2023-11-07T11:46:03.271Z,5.80
2023-11-07T11:48:52.204Z,6.88
2023-11-07T11:51:33.528Z,5.47
2023-11-07T11:54:00.796Z,4.43
2023-11-07T11:56:27.576Z,11.53
2023-11-07T11:59:12.309Z,8.85
2023-11-07T12:01:53.609Z,5.05
2023-11-07T12:04:49.217Z,4.95
2023-11-07T12:07:16.106Z,6.82
2023-11-07T12:09:51.439Z,5.77
2023-11-07T12:12:19.337Z,5.50
2023-11-07T12:14:58.035Z,4.50
2023-11-07T12:17:30.249Z,5.53
2023-11-07T12:20:08.522Z,5.40
2023-11-07T12:22:36.309Z,5.30
2023-11-07T12:25:14.901Z,6.78
2023-11-07T12:27:42.716Z,4.25
2023-11-07T12:30:12.818Z,4.97
2023-11-07T12:32:39.414Z,10.57
2023-11-07T12:35:19.682Z,5.00
2023-11-07T12:37:47.505Z,5.97
2023-11-07T12:40:17.004Z,5.63
2023-11-07T12:42:54.469Z,6.47
2023-11-07T12:45:35.925Z,4.32
2023-11-07T12:48:07.753Z,6.27
2023-11-07T12:50:37.090Z,5.22
2023-11-07T12:53:06.308Z,5.40
2023-11-07T12:55:36.691Z,9.40
2023-11-07T12:58:04.849Z,5.13
2023-11-07T13:00:52.113Z,5.40
2023-11-07T13:03:23.813Z,7.03
2023-11-07T13:06:10.943Z,4.75
2023-11-07T13:08:42.695Z,5.20
2023-11-07T13:11:20.324Z,6.63
2023-11-07T13:13:52.017Z,5.80
2023-11-07T13:16:19.463Z,6.47
2023-11-07T13:18:48.131Z,6.88
2023-11-07T13:21:15.810Z,12.85
2023-11-07T13:23:42.358Z,5.78
2023-11-07T13:26:09.916Z,5.13
2023-11-07T13:28:38.063Z,6.10
2023-11-07T13:31:06.300Z,5.32
2023-11-07T13:33:33.073Z,6.07
2023-11-07T13:36:00.409Z,5.93
2023-11-07T13:38:27.551Z,6.10
2023-11-07T13:40:55.268Z,5.82
2023-11-07T13:43:21.996Z,4.60
2023-11-07T13:45:48.657Z,6.35
2023-11-07T13:48:15.567Z,5.57
2023-11-07T13:50:45.492Z,6.93
2023-11-07T13:53:13.579Z,7.13
2023-11-07T13:55:40.504Z,5.43
2023-11-07T13:58:07.972Z,5.85
2023-11-07T14:00:34.877Z,5.15
2023-11-07T14:03:03.036Z,5.83
2023-11-07T14:05:31.585Z,4.97
2023-11-07T14:08:00.325Z,4.78
2023-11-07T14:10:30.767Z,5.55
2023-11-07T14:12:58.681Z,6.43
2023-11-07T14:15:33.910Z,5.10
2023-11-07T14:18:08.127Z,5.97
2023-11-07T14:20:39.918Z,5.65
2023-11-07T14:23:07.878Z,5.00
2023-11-07T14:25:34.426Z,4.80
2023-11-07T14:28:05.807Z,8.43
2023-11-07T14:30:39.558Z,6.20
2023-11-07T14:33:07.616Z,4.88
2023-11-07T14:35:34.992Z,4.97
2023-11-07T14:38:01.566Z,4.75
2023-11-07T14:40:30.736Z,5.40
2023-11-07T14:42:59.048Z,4.43
2023-11-07T14:45:26.350Z,9.48
2023-11-07T14:47:54.448Z,5.47
2023-11-07T14:50:21.473Z,4.05
2023-11-07T14:52:49.289Z,3.70
2023-11-07T14:55:20.785Z,3.97
2023-11-07T14:57:49.742Z,4.20
2023-11-07T15:00:43.969Z,5.18
2023-11-07T15:03:12.050Z,4.00
2023-11-07T15:05:40.401Z,8.73
2023-11-07T15:08:07.426Z,5.10
2023-11-07T15:10:34.235Z,6.50
2023-11-07T15:13:02.193Z,4.05
2023-11-07T15:15:30.441Z,4.78
2023-11-07T15:17:58.835Z,5.50
2023-11-07T15:20:32.122Z,5.80
2023-11-07T15:23:01.942Z,7.25
2023-11-07T15:25:32.050Z,5.95
2023-11-07T15:27:59.134Z,6.20
2023-11-07T15:30:25.843Z,5.23
2023-11-07T15:32:52.647Z,5.22
2023-11-07T15:35:19.721Z,6.47
2023-11-07T15:37:47.896Z,5.93
2023-11-07T15:40:15.902Z,5.65
2023-11-07T15:42:43.808Z,6.60
2023-11-07T15:45:14.856Z,5.47
2023-11-07T15:47:43.730Z,5.38
2023-11-07T15:50:15.619Z,8.50
2023-11-07T15:52:51.440Z,5.53
2023-11-07T15:55:26.420Z,5.63
2023-11-07T15:57:52.920Z,5.65
2023-11-07T16:00:20.116Z,4.55
2023-11-07T16:02:49.240Z,5.80
2023-11-07T16:05:16.965Z,5.18
2023-11-07T16:07:44.480Z,5.57
2023-11-07T16:10:12.974Z,5.35
2023-11-07T16:12:46.466Z,5.57
2023-11-07T16:15:13.134Z,6.15
2023-11-07T16:17:46.575Z,5.25
2023-11-07T16:20:21.709Z,4.40
2023-11-07T16:22:48.641Z,5.53
2023-11-07T16:25:17.085Z,5.28
2023-11-07T16:27:43.960Z,5.53
2023-11-07T16:30:10.967Z,5.18
2023-11-07T16:32:37.697Z,6.30
2023-11-07T16:35:06.242Z,10.30
2023-11-07T16:37:36.111Z,4.75
2023-11-07T16:40:05.622Z,4.95
2023-11-07T16:42:32.542Z,5.78
2023-11-07T16:44:59.277Z,5.47
2023-11-07T16:47:25.865Z,5.13
2023-11-07T16:49:52.797Z,5.63
2023-11-07T16:52:22.013Z,5.95
2023-11-07T16:54:49.380Z,5.88
2023-11-07T16:57:16.718Z,6.40
2023-11-07T16:59:43.562Z,5.57
2023-11-07T17:02:10.749Z,6.45
2023-11-07T17:04:38.509Z,5.50
2023-11-07T17:07:06.439Z,6.18
2023-11-07T17:09:34.043Z,6.53
2023-11-07T17:12:01.184Z,6.20
2023-11-07T17:14:27.708Z,6.18
2023-11-07T17:16:54.804Z,6.28
2023-11-07T17:19:21.529Z,5.43
2023-11-07T17:21:49.182Z,6.20
2023-11-07T17:24:17.154Z,6.50
2023-11-07T17:26:43.741Z,7.55
2023-11-07T17:29:11.373Z,6.65
2023-11-07T17:31:38.886Z,5.72
2023-11-07T17:34:08.357Z,6.17
2023-11-07T17:36:36.193Z,5.70
2023-11-07T17:39:04.657Z,5.40
2023-11-07T17:41:33.364Z,9.35
2023-11-07T17:44:00.161Z,5.72
2023-11-07T17:46:26.874Z,6.27
2023-11-07T17:48:54.316Z,6.18
2023-11-07T17:51:23.883Z,5.45
2023-11-07T17:53:53.283Z,6.28
2023-11-07T17:56:21.138Z,5.70
2023-11-07T17:58:48.220Z,6.33
2023-11-07T18:01:19.963Z,5.80
2023-11-07T18:03:47.112Z,6.18
2023-11-07T18:06:13.846Z,5.65
2023-11-07T18:08:40.409Z,5.72
2023-11-07T18:11:08.576Z,5.93
2023-11-07T18:13:35.854Z,6.22
2023-11-07T18:16:02.538Z,5.45
2023-11-07T18:18:29.301Z,6.70
2023-11-07T18:20:56.085Z,5.47
2023-11-07T18:23:22.808Z,5.87
2023-11-07T18:25:49.384Z,6.30
2023-11-07T18:28:16.634Z,6.70
2023-11-07T18:30:45.022Z,6.65
2023-11-07T18:33:12.531Z,6.75
2023-11-07T18:35:39.509Z,5.87
2023-11-07T18:38:06.137Z,6.55
2023-11-07T18:40:32.730Z,5.30
2023-11-07T18:42:59.412Z,6.43
2023-11-07T18:45:25.964Z,6.22
2023-11-07T18:47:52.537Z,6.10
2023-11-07T18:50:19.212Z,6.82
2023-11-07T18:52:45.772Z,6.05
2023-11-07T18:55:12.263Z,5.68
2023-11-07T18:57:39.046Z,6.38
2023-11-07T19:00:09.644Z,6.30
2023-11-07T19:02:37.091Z,5.72
2023-11-07T19:05:05.621Z,6.07
2023-11-07T19:07:32.249Z,5.75
2023-11-07T19:09:58.874Z,6.40
2023-11-07T19:12:27.536Z,6.80
2023-11-07T19:14:55.572Z,6.65
2023-11-07T19:17:23.540Z,5.68
2023-11-07T19:19:52.894Z,6.13
2023-11-07T19:22:22.645Z,6.20
2023-11-07T19:24:49.189Z,6.53
2023-11-07T19:27:18.193Z,6.85
2023-11-07T19:29:44.785Z,6.30
2023-11-07T19:32:12.269Z,6.15
2023-11-07T19:34:38.862Z,6.63
2023-11-07T19:37:06.370Z,7.00
2023-11-07T19:39:35.455Z,6.35
2023-11-07T19:42:05.414Z,6.65
2023-11-07T19:44:34.421Z,6.35
2023-11-07T19:47:01.392Z,10.25
2023-11-07T19:49:28.658Z,7.33
2023-11-07T19:52:02.246Z,8.50
2023-11-07T19:54:28.996Z,6.38
2023-11-07T19:56:55.801Z,6.57
2023-11-07T19:59:22.734Z,6.68
2023-11-07T20:01:49.914Z,5.93
2023-11-07T20:04:16.798Z,6.68
2023-11-07T20:06:43.828Z,6.20
2023-11-07T20:09:10.539Z,6.07
2023-11-07T20:11:38.425Z,6.43
2023-11-07T20:14:05.179Z,6.80
2023-11-07T20:16:31.711Z,6.18
2023-11-07T20:18:58.827Z,5.78
2023-11-07T20:21:25.463Z,7.50
2023-11-07T20:23:54.510Z,6.85
2023-11-07T20:26:21.116Z,6.40
2023-11-07T20:28:50.825Z,7.53
2023-11-07T20:31:18.201Z,6.90
2023-11-07T20:33:49.697Z,7.15
2023-11-07T20:36:18.558Z,7.38
2023-11-07T20:38:47.292Z,8.07
2023-11-07T20:41:18.297Z,7.40
2023-11-07T20:43:45.114Z,7.07
2023-11-07T20:46:27.154Z,6.25
2023-11-07T20:49:00.290Z,7.47
2023-11-07T20:51:26.936Z,7.90
2023-11-07T20:53:54.509Z,8.00
2023-11-07T20:56:23.375Z,8.30
2023-11-07T20:58:50.049Z,7.22
2023-11-07T21:01:17.777Z,7.53
2023-11-07T21:03:44.411Z,7.30
2023-11-07T21:06:11.654Z,8.40
2023-11-07T21:08:38.925Z,8.23
2023-11-07T21:11:05.458Z,11.05
2023-11-07T21:13:32.124Z,8.93
2023-11-07T21:15:58.636Z,8.57
2023-11-07T21:18:25.207Z,7.82
2023-11-07T21:20:51.771Z,7.85
2023-11-07T21:23:18.831Z,9.45
2023-11-07T21:25:46.002Z,9.25
2023-11-07T21:28:12.488Z,8.57
2023-11-07T21:30:39.161Z,11.68
2023-11-07T21:33:07.032Z,8.38
2023-11-07T21:35:33.736Z,8.77
2023-11-07T21:38:00.218Z,8.55
2023-11-07T21:40:26.765Z,8.43
2023-11-07T21:42:53.291Z,7.88
2023-11-07T21:45:21.133Z,7.50
2023-11-07T21:47:48.356Z,8.60
2023-11-07T21:50:15.055Z,9.77
2023-11-07T21:52:41.791Z,11.83
2023-11-07T21:55:08.723Z,9.38
2023-11-07T21:57:37.533Z,8.90
2023-11-07T22:00:05.100Z,9.68
2023-11-07T22:02:31.749Z,10.77
2023-11-07T22:04:58.311Z,8.90
2023-11-07T22:07:27.783Z,8.95
2023-11-07T22:09:54.474Z,10.70
2023-11-07T22:12:21.031Z,9.65
2023-11-07T22:14:48.434Z,10.02
2023-11-07T22:17:14.965Z,10.47
2023-11-07T22:19:41.452Z,9.60
2023-11-07T22:22:08.135Z,11.27
2023-11-07T22:24:35.340Z,8.40
2023-11-07T22:27:02.068Z,10.57
2023-11-07T22:29:28.801Z,11.00
2023-11-07T22:31:55.332Z,11.00
2023-11-07T22:34:22.049Z,11.02
2023-11-07T22:36:48.706Z,10.35
2023-11-07T22:39:15.390Z,9.80
2023-11-07T22:41:42.128Z,11.03
2023-11-07T22:44:08.744Z,10.50
2023-11-07T22:46:35.266Z,10.38
2023-11-07T22:49:02.067Z,9.32
2023-11-07T22:51:28.651Z,11.52
2023-11-07T22:53:55.147Z,11.07
2023-11-07T22:56:22.870Z,8.38
2023-11-07T22:58:49.386Z,10.40
2023-11-07T23:01:16.594Z,11.63
2023-11-07T23:03:43.263Z,11.23
2023-11-07T23:06:10.085Z,10.67
2023-11-07T23:08:36.680Z,11.25
2023-11-07T23:11:03.427Z,10.80
2023-11-07T23:13:30.660Z,15.32
2023-11-07T23:15:57.130Z,9.10
2023-11-07T23:18:23.735Z,11.83
2023-11-07T23:20:50.516Z,12.20
2023-11-07T23:23:17.127Z,12.30
2023-11-07T23:25:48.090Z,12.93
2023-11-07T23:28:14.719Z,11.43
2023-11-07T23:30:41.547Z,12.90
2023-11-07T23:33:08.377Z,9.98
2023-11-07T23:35:34.947Z,12.35
2023-11-07T23:38:01.580Z,12.68
2023-11-07T23:40:29.263Z,11.63
2023-11-07T23:42:55.852Z,11.73
2023-11-07T23:45:23.320Z,9.05
2023-11-07T23:47:50.552Z,12.05
2023-11-07T23:50:17.441Z,10.70
2023-11-07T23:52:44.051Z,10.18
2023-11-07T23:55:10.648Z,12.47
2023-11-07T23:57:37.873Z,10.43
